Time;durP1;ratioP1;P1;durP2;ratioP2;P2;SDS_P1;SDS_P2;PMS_P1;PMS_P2;Temp;Humidity;BMP_temperature;BMP_pressure;BME280_temperature;BME280_humidity;BME280_pressure;Samples;Min_cycle;Max_cycle;Signal;HPM_P1;HPM_P2
2021/11/16 00:01:48;;;;;;;;;34.00;27.00;;;;;;;;5077430;28;50007;-62
2021/11/16 00:04:13;;;;;;;;;29.00;27.50;;;;;;;;5077174;28;50503;-63
2021/11/16 00:06:39;;;;;;;;;30.25;26.25;;;;;;;;5076978;27;49541;-62
2021/11/16 00:09:04;;;;;;;;;34.75;29.00;;;;;;;;5076910;27;49584;-62
2021/11/16 00:11:29;;;;;;;;;29.50;25.00;;;;;;;;5077347;27;49606;-62
2021/11/16 00:13:55;;;;;;;;;28.75;25.25;;;;;;;;5076771;28;50565;-62
2021/11/16 00:16:20;;;;;;;;;32.50;25.25;;;;;;;;5076884;28;49757;-63
2021/11/16 00:18:47;;;;;;;;;21.50;18.50;;;;;;;;5077267;27;49898;-63
2021/11/16 00:21:13;;;;;;;;;28.00;22.25;;;;;;;;5059310;28;49647;-62
2021/11/16 00:23:40;;;;;;;;;31.25;25.00;;;;;;;;5041768;28;51494;-63
2021/11/16 00:26:06;;;;;;;;;20.50;15.50;;;;;;;;5076840;28;49727;-62
2021/11/16 00:28:31;;;;;;;;;30.50;28.75;;;;;;;;5077140;28;49545;-64
2021/11/16 00:30:57;;;;;;;;;30.50;22.50;;;;;;;;5059072;28;49748;-63
2021/11/16 00:33:22;;;;;;;;;22.50;18.25;;;;;;;;5076829;28;50698;-62
2021/11/16 00:35:48;;;;;;;;;29.75;24.75;;;;;;;;5076913;28;49784;-62
2021/11/16 00:38:13;;;;;;;;;33.00;26.25;;;;;;;;5076669;28;50500;-62
2021/11/16 00:40:38;;;;;;;;;37.00;33.25;;;;;;;;5077018;28;49685;-65
2021/11/16 00:43:07;;;;;;;;;33.75;29.75;;;;;;;;5074466;28;50263;-66
2021/11/16 00:45:32;;;;;;;;;28.75;24.00;;;;;;;;5055472;28;49922;-62
2021/11/16 00:47:57;;;;;;;;;28.75;25.25;;;;;;;;5073115;28;49858;-63
2021/11/16 00:50:22;;;;;;;;;27.75;24.50;;;;;;;;5073684;28;49645;-62
2021/11/16 00:52:48;;;;;;;;;27.50;26.75;;;;;;;;5072084;28;64513;-63
2021/11/16 00:55:13;;;;;;;;;24.75;23.00;;;;;;;;5072782;28;49846;-62
2021/11/16 00:57:38;;;;;;;;;22.25;20.00;;;;;;;;5073235;28;49914;-63
2021/11/16 01:00:04;;;;;;;;;24.75;21.25;;;;;;;;5073598;27;49796;-63
2021/11/16 01:02:29;;;;;;;;;25.75;22.25;;;;;;;;5073026;28;50355;-62
2021/11/16 01:04:54;;;;;;;;;29.25;24.50;;;;;;;;5072734;28;57827;-62
2021/11/16 01:07:20;;;;;;;;;27.00;21.50;;;;;;;;5072926;27;49777;-62
2021/11/16 01:09:45;;;;;;;;;29.75;23.25;;;;;;;;5073286;28;49854;-68
2021/11/16 01:12:11;;;;;;;;;32.00;26.75;;;;;;;;5072897;28;50476;-71
2021/11/16 01:14:36;;;;;;;;;31.00;22.00;;;;;;;;5073023;28;49846;-62
2021/11/16 01:17:01;;;;;;;;;22.50;17.00;;;;;;;;5073106;28;49788;-62
2021/11/16 01:19:26;;;;;;;;;28.75;24.25;;;;;;;;5073175;28;49837;-62
2021/11/16 01:21:51;;;;;;;;;21.50;18.25;;;;;;;;5072262;28;56337;-68
2021/11/16 01:24:18;;;;;;;;;20.75;19.25;;;;;;;;5072431;28;54232;-71
2021/11/16 01:26:47;;;;;;;;;23.50;21.75;;;;;;;;5055008;28;49800;-62
2021/11/16 01:29:12;;;;;;;;;21.25;18.50;;;;;;;;5073097;28;49810;-63
2021/11/16 01:31:38;;;;;;;;;19.25;18.00;;;;;;;;5072728;28;49799;-63
2021/11/16 01:34:05;;;;;;;;;25.75;24.75;;;;;;;;5072736;28;50085;-62
2021/11/16 01:36:30;;;;;;;;;20.00;18.25;;;;;;;;5072650;27;49793;-62
2021/11/16 01:38:57;;;;;;;;;18.25;18.00;;;;;;;;5072651;28;49769;-62
2021/11/16 01:41:23;;;;;;;;;26.00;18.25;;;;;;;;5072391;28;50202;-62
2021/11/16 01:43:48;;;;;;;;;18.25;18.00;;;;;;;;5072473;28;49793;-62
2021/11/16 01:46:14;;;;;;;;;21.75;18.25;;;;;;;;5072613;28;50031;-62
2021/11/16 01:48:42;;;;;;;;;17.75;16.75;;;;;;;;5072674;28;49760;-62
2021/11/16 01:51:08;;;;;;;;;21.00;16.75;;;;;;;;5072160;28;49746;-62
2021/11/16 01:53:33;;;;;;;;;15.75;13.50;;;;;;;;5072098;28;49793;-64
2021/11/16 01:55:58;;;;;;;;;22.00;16.00;;;;;;;;5052644;28;49822;-62
2021/11/16 01:58:23;;;;;;;;;17.50;16.25;;;;;;;;5072390;28;50067;-62
2021/11/16 02:00:49;;;;;;;;;17.25;15.25;;;;;;;;5071961;28;50539;-62
2021/11/16 02:03:14;;;;;;;;;16.00;15.50;;;;;;;;5072231;28;49922;-63
2021/11/16 02:05:41;;;;;;;;;18.75;17.50;;;;;;;;5054088;28;49659;-63
2021/11/16 02:08:06;;;;;;;;;18.25;14.00;;;;;;;;5072026;28;49511;-63
2021/11/16 02:10:31;;;;;;;;;18.75;16.50;;;;;;;;5071981;28;49914;-64
2021/11/16 02:12:56;;;;;;;;;13.25;11.50;;;;;;;;5072092;28;49649;-63
2021/11/16 02:15:21;;;;;;;;;19.25;15.75;;;;;;;;5071995;28;49659;-62
2021/11/16 02:17:48;;;;;;;;;17.75;17.75;;;;;;;;5072150;28;49874;-63
2021/11/16 02:20:13;;;;;;;;;18.00;14.00;;;;;;;;5053538;28;50896;-62
2021/11/16 02:22:38;;;;;;;;;21.00;15.50;;;;;;;;5053275;28;51940;-64
2021/11/16 02:25:04;;;;;;;;;16.50;16.50;;;;;;;;5053619;28;49734;-63
2021/11/16 02:27:29;;;;;;;;;25.00;20.50;;;;;;;;5037046;28;49951;-63
2021/11/16 02:29:54;;;;;;;;;19.00;17.75;;;;;;;;5071775;28;49695;-66
2021/11/16 02:32:19;;;;;;;;;19.25;15.75;;;;;;;;5071411;28;60027;-63
2021/11/16 02:34:44;;;;;;;;;21.50;18.50;;;;;;;;5053019;28;50383;-63
2021/11/16 02:37:10;;;;;;;;;26.00;22.25;;;;;;;;5071495;28;49673;-63
2021/11/16 02:39:35;;;;;;;;;32.50;22.75;;;;;;;;5071083;28;60093;-65
2021/11/16 02:42:00;;;;;;;;;21.00;17.75;;;;;;;;5071686;27;49669;-62
2021/11/16 02:44:25;;;;;;;;;25.75;19.50;;;;;;;;5053563;28;49586;-63
2021/11/16 02:46:51;;;;;;;;;24.50;18.00;;;;;;;;5071767;28;49688;-70
2021/11/16 02:49:16;;;;;;;;;20.00;17.50;;;;;;;;5071324;28;50530;-65
2021/11/16 02:51:42;;;;;;;;;25.50;20.75;;;;;;;;5071068;28;49647;-63
2021/11/16 02:54:09;;;;;;;;;17.75;16.75;;;;;;;;5071445;28;49739;-63
2021/11/16 02:56:35;;;;;;;;;24.25;21.00;;;;;;;;5053454;28;49744;-62
2021/11/16 02:59:00;;;;;;;;;18.50;15.50;;;;;;;;5071235;28;49774;-64
2021/11/16 03:01:25;;;;;;;;;25.00;18.25;;;;;;;;5071497;27;49886;-64
2021/11/16 03:03:50;;;;;;;;;20.50;17.25;;;;;;;;5071285;28;49651;-63
2021/11/16 03:06:16;;;;;;;;;22.50;19.00;;;;;;;;5070962;28;50012;-62
2021/11/16 03:08:41;;;;;;;;;18.00;18.00;;;;;;;;5070446;28;66031;-62
2021/11/16 03:11:07;;;;;;;;;22.75;18.75;;;;;;;;5071257;28;49687;-66
2021/11/16 03:13:36;;;;;;;;;24.25;17.25;;;;;;;;5071242;28;49803;-63
2021/11/16 03:16:02;;;;;;;;;24.00;20.25;;;;;;;;5071292;28;49628;-67
2021/11/16 03:18:28;;;;;;;;;19.00;16.75;;;;;;;;5070833;28;50483;-63
2021/11/16 03:20:53;;;;;;;;;18.25;15.00;;;;;;;;5070575;28;60041;-63
2021/11/16 03:23:21;;;;;;;;;28.75;23.75;;;;;;;;5070990;28;49897;-65
2021/11/16 03:25:51;;;;;;;;;22.75;14.50;;;;;;;;5071030;28;49822;-65
2021/11/16 03:28:16;;;;;;;;;28.25;22.50;;;;;;;;5070830;28;49985;-68
2021/11/16 03:30:43;;;;;;;;;24.75;19.50;;;;;;;;5035903;28;49725;-65
2021/11/16 03:33:09;;;;;;;;;23.25;21.25;;;;;;;;5070821;28;49651;-63
2021/11/16 03:35:35;;;;;;;;;24.75;21.50;;;;;;;;5070875;28;49830;-62
2021/11/16 03:38:00;;;;;;;;;22.75;20.50;;;;;;;;5052437;28;50749;-62
2021/11/16 03:40:26;;;;;;;;;30.00;20.25;;;;;;;;5070710;28;49762;-61
2021/11/16 03:42:51;;;;;;;;;20.50;19.00;;;;;;;;5070711;28;49627;-61
2021/11/16 03:45:17;;;;;;;;;21.50;19.75;;;;;;;;5070955;28;49549;-61
2021/11/16 03:47:42;;;;;;;;;26.50;18.50;;;;;;;;5052232;28;49706;-61
2021/11/16 03:50:12;;;;;;;;;26.00;21.50;;;;;;;;5070709;28;49561;-61
2021/11/16 03:52:41;;;;;;;;;23.25;17.00;;;;;;;;5070512;28;49676;-62
2021/11/16 03:55:06;;;;;;;;;18.00;17.25;;;;;;;;5053061;28;49956;-61
2021/11/16 03:57:32;;;;;;;;;28.50;22.25;;;;;;;;5070323;28;50247;-62
2021/11/16 03:59:57;;;;;;;;;21.00;16.75;;;;;;;;5070434;28;49685;-61
2021/11/16 04:02:22;;;;;;;;;18.75;16.75;;;;;;;;5070525;28;50037;-62
2021/11/16 04:04:53;;;;;;;;;24.00;19.75;;;;;;;;5070404;28;49559;-62
2021/11/16 04:07:18;;;;;;;;;24.75;23.00;;;;;;;;5070173;28;50898;-62
2021/11/16 04:09:43;;;;;;;;;28.00;21.25;;;;;;;;5070059;28;57926;-62
2021/11/16 04:12:09;;;;;;;;;21.50;16.00;;;;;;;;5070482;28;49857;-61
2021/11/16 04:14:34;;;;;;;;;20.00;18.50;;;;;;;;5070301;28;49803;-62
2021/11/16 04:16:59;;;;;;;;;18.50;14.75;;;;;;;;5070108;28;60139;-62
2021/11/16 04:19:24;;;;;;;;;20.50;19.25;;;;;;;;5072692;27;51429;-62
2021/11/16 04:21:49;;;;;;;;;23.25;18.50;;;;;;;;5073220;28;57866;-62
2021/11/16 04:24:15;;;;;;;;;18.50;15.25;;;;;;;;5073845;28;49986;-62
2021/11/16 04:26:40;;;;;;;;;26.25;24.00;;;;;;;;5073526;28;49711;-62
2021/11/16 04:29:05;;;;;;;;;27.25;24.00;;;;;;;;5073111;28;62590;-63
2021/11/16 04:31:31;;;;;;;;;20.50;20.00;;;;;;;;5073721;27;49785;-62
2021/11/16 04:34:05;;;;;;;;;22.75;20.00;;;;;;;;5073703;28;49778;-62
2021/11/16 04:36:31;;;;;;;;;24.50;20.00;;;;;;;;5073165;28;49675;-62
2021/11/16 04:38:56;;;;;;;;;24.75;24.25;;;;;;;;5055549;28;50059;-62
2021/11/16 04:41:22;;;;;;;;;28.00;23.00;;;;;;;;5073666;28;49762;-64
2021/11/16 04:43:47;;;;;;;;;22.25;21.00;;;;;;;;5073137;28;50092;-62
2021/11/16 04:46:17;;;;;;;;;27.75;27.00;;;;;;;;5054768;28;54965;-62
2021/11/16 04:54:25;;;;;;;;;30.25;22.75;;;;;;;;5073413;27;49666;-62
2021/11/16 05:04:53;;;;;;;;;17.50;16.00;;;;;;;;5073496;28;49760;-64
2021/11/16 05:07:20;;;;;;;;;24.50;22.75;;;;;;;;5072713;28;51521;-62
2021/11/16 05:09:49;;;;;;;;;30.25;26.00;;;;;;;;5055250;28;49807;-65
2021/11/16 05:12:15;;;;;;;;;21.75;20.75;;;;;;;;5055017;28;49849;-65
2021/11/16 05:14:40;;;;;;;;;24.50;18.50;;;;;;;;5073113;28;49685;-63
2021/11/16 05:17:05;;;;;;;;;23.50;23.00;;;;;;;;5054681;28;49732;-62
2021/11/16 05:19:31;;;;;;;;;25.00;23.75;;;;;;;;5072803;28;52098;-63
2021/11/16 05:21:56;;;;;;;;;30.25;26.00;;;;;;;;5054007;28;58483;-62
2021/11/16 05:24:24;;;;;;;;;28.75;25.50;;;;;;;;5072966;28;49925;-65
2021/11/16 05:26:49;;;;;;;;;29.25;26.75;;;;;;;;5072698;28;50774;-63
2021/11/16 05:29:15;;;;;;;;;26.50;21.25;;;;;;;;5072553;28;49647;-63
2021/11/16 05:31:40;;;;;;;;;26.00;22.50;;;;;;;;5072323;28;49806;-65
2021/11/16 05:34:05;;;;;;;;;30.50;24.25;;;;;;;;5072729;28;49596;-62
2021/11/16 05:36:30;;;;;;;;;32.25;28.75;;;;;;;;5064505;28;49617;-71
2021/11/16 05:38:55;;;;;;;;;32.00;30.00;;;;;;;;5062266;28;58535;-62
2021/11/16 05:41:21;;;;;;;;;29.25;25.50;;;;;;;;5085343;28;49349;-76
2021/11/16 05:43:46;;;;;;;;;20.75;20.75;;;;;;;;5037291;28;49748;-65
2021/11/16 05:46:12;;;;;;;;;24.75;23.50;;;;;;;;5071968;28;50362;-65
2021/11/16 05:48:38;;;;;;;;;26.00;24.50;;;;;;;;5072624;28;49817;-65
2021/11/16 05:51:03;;;;;;;;;31.00;26.50;;;;;;;;5072337;28;49586;-67
2021/11/16 05:53:29;;;;;;;;;31.00;25.00;;;;;;;;5072049;28;49858;-65
2021/11/16 05:55:54;;;;;;;;;22.50;20.75;;;;;;;;5053941;28;49864;-65
2021/11/16 05:58:19;;;;;;;;;30.25;22.75;;;;;;;;5072236;28;49698;-63
2021/11/16 06:00:45;;;;;;;;;39.25;26.75;;;;;;;;5079830;28;49934;-64
2021/11/16 06:03:10;;;;;;;;;24.25;17.50;;;;;;;;5075928;28;49572;-66
2021/11/16 06:05:35;;;;;;;;;24.50;20.50;;;;;;;;5071818;28;54260;-66
2021/11/16 06:08:01;;;;;;;;;33.50;24.00;;;;;;;;5072780;27;49698;-69
2021/11/16 06:10:26;;;;;;;;;27.00;24.75;;;;;;;;5042006;28;49743;-65
2021/11/16 06:12:51;;;;;;;;;26.75;22.00;;;;;;;;5076691;28;56302;-67
2021/11/16 06:15:16;;;;;;;;;23.50;22.00;;;;;;;;5087842;28;61052;-66
2021/11/16 06:17:42;;;;;;;;;26.75;20.25;;;;;;;;5057615;28;49853;-65
2021/11/16 06:20:07;;;;;;;;;16.25;14.50;;;;;;;;5072572;28;49772;-65
2021/11/16 06:22:33;;;;;;;;;24.75;20.25;;;;;;;;5071899;27;49740;-65
2021/11/16 06:24:58;;;;;;;;;27.25;22.25;;;;;;;;5079093;28;66716;-64
2021/11/16 06:27:23;;;;;;;;;25.75;23.00;;;;;;;;5087844;28;61998;-62
2021/11/16 06:29:48;;;;;;;;;22.50;22.00;;;;;;;;5073647;28;49559;-63
2021/11/16 06:32:13;;;;;;;;;23.25;18.25;;;;;;;;5069432;28;55453;-62
2021/11/16 06:34:39;;;;;;;;;27.00;25.75;;;;;;;;5070697;28;59650;-63
2021/11/16 06:37:04;;;;;;;;;23.25;21.00;;;;;;;;5071233;28;49685;-66
2021/11/16 06:39:29;;;;;;;;;25.75;22.25;;;;;;;;5071788;27;50089;-65
2021/11/16 06:41:59;;;;;;;;;17.75;17.75;;;;;;;;5070805;28;57225;-66
2021/11/16 06:44:24;;;;;;;;;19.00;16.75;;;;;;;;5070847;28;50678;-65
2021/11/16 06:46:50;;;;;;;;;29.00;24.25;;;;;;;;5069874;27;49642;-65
2021/11/16 06:49:15;;;;;;;;;21.75;21.75;;;;;;;;5069987;28;49825;-64
2021/11/16 06:51:41;;;;;;;;;36.75;22.25;;;;;;;;5069942;28;49951;-66
2021/11/16 06:54:13;;;;;;;;;25.00;20.50;;;;;;;;5070244;28;50316;-69
2021/11/16 06:56:38;;;;;;;;;25.75;21.75;;;;;;;;5070787;28;49710;-67
2021/11/16 06:59:04;;;;;;;;;21.50;19.50;;;;;;;;5070747;27;49810;-66
2021/11/16 07:01:30;;;;;;;;;24.25;20.00;;;;;;;;5071510;28;49822;-69
2021/11/16 07:03:58;;;;;;;;;22.75;21.00;;;;;;;;5071058;28;50447;-72
2021/11/16 07:06:26;;;;;;;;;26.25;21.50;;;;;;;;5070986;28;49745;-67
2021/11/16 07:08:53;;;;;;;;;22.75;20.50;;;;;;;;5071128;28;49784;-67
2021/11/16 07:11:19;;;;;;;;;22.75;21.75;;;;;;;;5071228;27;49753;-67
2021/11/16 07:13:53;;;;;;;;;21.00;20.25;;;;;;;;5070899;28;49723;-71
2021/11/16 07:16:18;;;;;;;;;20.50;17.50;;;;;;;;5071369;28;50017;-66
2021/11/16 07:18:45;;;;;;;;;24.75;21.25;;;;;;;;5071069;28;49909;-66
2021/11/16 07:21:10;;;;;;;;;20.00;17.00;;;;;;;;5070922;28;49798;-66
2021/11/16 07:23:35;;;;;;;;;23.50;18.50;;;;;;;;5070756;28;49771;-66
2021/11/16 07:26:00;;;;;;;;;23.00;18.25;;;;;;;;5070471;28;49607;-66
2021/11/16 07:28:25;;;;;;;;;27.25;20.75;;;;;;;;5052631;28;58318;-66
2021/11/16 07:30:51;;;;;;;;;22.75;20.00;;;;;;;;5070770;28;49894;-66
2021/11/16 07:33:19;;;;;;;;;25.75;22.75;;;;;;;;5070612;27;49656;-66
2021/11/16 07:35:44;;;;;;;;;27.25;23.00;;;;;;;;5071063;28;49726;-65
2021/11/16 07:38:11;;;;;;;;;24.50;20.00;;;;;;;;5070966;28;49738;-66
2021/11/16 07:40:40;;;;;;;;;23.00;19.50;;;;;;;;5070906;27;49591;-66
2021/11/16 07:43:26;;;;;;;;;24.75;22.50;;;;;;;;5052534;28;50503;-66
2021/11/16 07:45:53;;;;;;;;;21.75;20.75;;;;;;;;5070674;28;49602;-67
2021/11/16 07:48:19;;;;;;;;;23.75;23.75;;;;;;;;5052768;28;49820;-66
2021/11/16 07:51:05;;;;;;;;;28.25;23.25;;;;;;;;5070815;28;49893;-66
2021/11/16 07:53:34;;;;;;;;;32.00;27.50;;;;;;;;5072996;28;50680;-67
2021/11/16 07:56:15;;;;;;;;;26.25;21.25;;;;;;;;5074113;27;49682;-67
2021/11/16 07:58:46;;;;;;;;;28.25;25.00;;;;;;;;5055631;28;49803;-66
2021/11/16 08:01:17;;;;;;;;;25.25;18.75;;;;;;;;5074603;28;49689;-66
2021/11/16 08:03:48;;;;;;;;;18.25;15.75;;;;;;;;5073757;27;50379;-66
2021/11/16 08:11:29;;;;;;;;;29.50;27.50;;;;;;;;5056014;28;49760;-66
2021/11/16 08:14:05;;;;;;;;;27.00;23.00;;;;;;;;5073526;28;49700;-66
2021/11/16 08:16:30;;;;;;;;;29.25;24.00;;;;;;;;5073792;27;49633;-67
2021/11/16 08:19:01;;;;;;;;;35.50;27.75;;;;;;;;5055796;28;49744;-66
2021/11/16 08:21:27;;;;;;;;;35.00;32.00;;;;;;;;5056044;28;50184;-67
2021/11/16 08:23:53;;;;;;;;;23.75;23.00;;;;;;;;5073656;28;50485;-66
2021/11/16 08:26:19;;;;;;;;;37.25;32.25;;;;;;;;5073440;28;49696;-67
2021/11/16 08:28:45;;;;;;;;;30.00;25.00;;;;;;;;5055610;28;49855;-67
2021/11/16 08:31:10;;;;;;;;;29.50;26.75;;;;;;;;5055665;28;49890;-67
2021/11/16 08:33:35;;;;;;;;;24.00;22.50;;;;;;;;5055165;28;51468;-68
2021/11/16 08:36:01;;;;;;;;;26.50;23.25;;;;;;;;5055187;28;49946;-67
2021/11/16 08:38:31;;;;;;;;;29.00;24.50;;;;;;;;5073543;28;49690;-67
2021/11/16 08:40:58;;;;;;;;;26.75;24.50;;;;;;;;5073608;28;49858;-66
2021/11/16 08:43:35;;;;;;;;;34.50;29.00;;;;;;;;5073215;28;49616;-66
2021/11/16 08:46:03;;;;;;;;;25.50;25.50;;;;;;;;5073369;28;49622;-67
2021/11/16 08:48:28;;;;;;;;;34.00;25.75;;;;;;;;5073083;27;49833;-66
2021/11/16 08:50:58;;;;;;;;;26.00;23.50;;;;;;;;5073961;28;49918;-67
2021/11/16 08:53:30;;;;;;;;;28.00;25.25;;;;;;;;5072651;28;50467;-66
2021/11/16 08:55:55;;;;;;;;;29.75;27.00;;;;;;;;5055034;28;49555;-66
2021/11/16 08:58:23;;;;;;;;;25.25;21.00;;;;;;;;5073102;28;49739;-66
2021/11/16 09:00:55;;;;;;;;;23.25;21.50;;;;;;;;5073366;28;49733;-66
2021/11/16 09:03:26;;;;;;;;;23.25;19.25;;;;;;;;5072694;28;50487;-66
2021/11/16 09:05:52;;;;;;;;;19.00;18.75;;;;;;;;5072693;28;49546;-66
2021/11/16 09:08:19;;;;;;;;;25.50;25.25;;;;;;;;5072458;28;49853;-66
2021/11/16 09:10:45;;;;;;;;;24.50;18.75;;;;;;;;5073553;28;49585;-66
2021/11/16 09:13:11;;;;;;;;;24.75;20.50;;;;;;;;5072720;28;50426;-66
2021/11/16 09:15:43;;;;;;;;;29.25;23.75;;;;;;;;5054747;28;49798;-66
2021/11/16 09:18:14;;;;;;;;;25.75;23.50;;;;;;;;5072851;28;49779;-66
2021/11/16 09:20:39;;;;;;;;;18.75;18.00;;;;;;;;5072971;28;49494;-66
2021/11/16 09:23:05;;;;;;;;;15.25;14.75;;;;;;;;5072381;28;50298;-67
2021/11/16 09:25:31;;;;;;;;;19.50;17.75;;;;;;;;5072052;27;49667;-66
2021/11/16 09:28:01;;;;;;;;;19.75;15.50;;;;;;;;5072731;27;49548;-66
2021/11/16 09:30:30;;;;;;;;;19.75;19.50;;;;;;;;5055266;28;49635;-67
2021/11/16 09:32:59;;;;;;;;;27.25;24.75;;;;;;;;5071853;28;49763;-67
2021/11/16 09:35:40;;;;;;;;;24.50;19.75;;;;;;;;5054200;28;49869;-67
2021/11/16 09:38:05;;;;;;;;;28.25;22.25;;;;;;;;5072457;28;49903;-66
2021/11/16 09:40:30;;;;;;;;;28.25;27.50;;;;;;;;5072508;28;49829;-66
2021/11/16 09:42:55;;;;;;;;;25.25;22.25;;;;;;;;5072117;28;59488;-66
2021/11/16 09:45:25;;;;;;;;;24.25;21.00;;;;;;;;5053432;27;59991;-67
2021/11/16 09:47:50;;;;;;;;;21.25;21.25;;;;;;;;5054848;28;49761;-66
2021/11/16 09:50:20;;;;;;;;;21.75;18.25;;;;;;;;5054276;28;49797;-66
2021/11/16 09:52:52;;;;;;;;;21.75;20.50;;;;;;;;5071911;28;50474;-66
2021/11/16 09:55:18;;;;;;;;;25.25;20.75;;;;;;;;5037166;28;49770;-66
2021/11/16 09:57:47;;;;;;;;;22.50;22.25;;;;;;;;5072289;28;49620;-66
2021/11/16 10:00:25;;;;;;;;;30.50;26.50;;;;;;;;5072300;28;50026;-66
2021/11/16 10:02:54;;;;;;;;;24.25;20.00;;;;;;;;5072017;28;50616;-66
2021/11/16 10:05:20;;;;;;;;;17.50;15.75;;;;;;;;5053903;28;49618;-66
2021/11/16 10:07:49;;;;;;;;;14.00;12.00;;;;;;;;5071989;28;49677;-66
2021/11/16 10:10:15;;;;;;;;;17.25;14.25;;;;;;;;5054290;28;49913;-66
2021/11/16 10:12:42;;;;;;;;;23.00;18.00;;;;;;;;5053448;28;52280;-66
2021/11/16 10:15:07;;;;;;;;;14.00;13.50;;;;;;;;5071442;28;49829;-67
2021/11/16 10:17:33;;;;;;;;;18.75;17.50;;;;;;;;5071485;28;49539;-67
2021/11/16 10:19:58;;;;;;;;;15.25;13.75;;;;;;;;5072180;28;49691;-67
2021/11/16 10:22:23;;;;;;;;;19.75;16.75;;;;;;;;5053072;28;58683;-67
2021/11/16 10:24:48;;;;;;;;;18.25;15.75;;;;;;;;5071108;28;60533;-66
2021/11/16 10:27:16;;;;;;;;;15.50;13.25;;;;;;;;5071883;27;49539;-66
2021/11/16 10:29:42;;;;;;;;;20.75;16.50;;;;;;;;5072325;28;49941;-66
2021/11/16 10:32:16;;;;;;;;;17.75;15.50;;;;;;;;5071786;28;49679;-66
2021/11/16 10:34:42;;;;;;;;;20.50;15.50;;;;;;;;5071824;28;49724;-66
2021/11/16 10:37:07;;;;;;;;;18.75;13.50;;;;;;;;5071608;28;49713;-67
2021/11/16 10:39:32;;;;;;;;;17.75;14.50;;;;;;;;5053651;28;49824;-66
2021/11/16 10:41:58;;;;;;;;;19.75;17.00;;;;;;;;5071345;28;51573;-66
2021/11/16 10:44:24;;;;;;;;;26.00;21.25;;;;;;;;5071589;28;49917;-67
2021/11/16 10:46:49;;;;;;;;;24.00;16.50;;;;;;;;5053332;28;49669;-68
2021/11/16 10:49:15;;;;;;;;;21.50;16.25;;;;;;;;5071722;27;49632;-68
2021/11/16 10:51:42;;;;;;;;;19.25;16.75;;;;;;;;5071000;28;50376;-67
2021/11/16 10:54:09;;;;;;;;;20.25;20.00;;;;;;;;5071162;28;49771;-66
2021/11/16 10:56:35;;;;;;;;;25.75;23.75;;;;;;;;5071496;28;49707;-66
2021/11/16 10:59:07;;;;;;;;;25.00;21.50;;;;;;;;5071314;28;49850;-66
2021/11/16 11:01:32;;;;;;;;;22.50;20.00;;;;;;;;5071121;28;50351;-66
2021/11/16 11:03:57;;;;;;;;;32.25;24.75;;;;;;;;5052988;28;49645;-67
2021/11/16 11:06:32;;;;;;;;;21.75;19.50;;;;;;;;5070861;28;49722;-66
2021/11/16 11:09:01;;;;;;;;;20.25;16.25;;;;;;;;5071497;28;49655;-66
2021/11/16 11:11:26;;;;;;;;;16.00;14.00;;;;;;;;5052898;28;50579;-66
2021/11/16 11:13:57;;;;;;;;;26.00;19.25;;;;;;;;5071043;27;49628;-67
2021/11/16 11:16:23;;;;;;;;;24.75;21.00;;;;;;;;5071060;28;49648;-67
2021/11/16 11:18:48;;;;;;;;;30.25;24.75;;;;;;;;5071184;28;49903;-66
2021/11/16 11:21:35;;;;;;;;;24.00;24.00;;;;;;;;5070957;28;51190;-66
2021/11/16 11:24:12;;;;;;;;;25.75;24.00;;;;;;;;5070905;28;49612;-67
2021/11/16 11:26:46;;;;;;;;;27.25;24.50;;;;;;;;5070397;28;49773;-66
2021/11/16 11:29:25;;;;;;;;;25.75;24.50;;;;;;;;5054116;28;49673;-66
2021/11/16 11:31:55;;;;;;;;;24.25;21.00;;;;;;;;5070998;28;50554;-66
2021/11/16 11:34:21;;;;;;;;;20.50;20.00;;;;;;;;5070812;28;49622;-66
2021/11/16 11:36:46;;;;;;;;;29.25;21.75;;;;;;;;5070523;28;49774;-66
2021/11/16 11:39:15;;;;;;;;;23.75;20.75;;;;;;;;5071039;28;49549;-66
2021/11/16 11:41:48;;;;;;;;;24.25;20.25;;;;;;;;5052336;28;49774;-66
2021/11/16 11:44:18;;;;;;;;;27.25;22.00;;;;;;;;5070672;28;49629;-66
2021/11/16 11:46:44;;;;;;;;;26.50;18.50;;;;;;;;5070798;28;49676;-68
2021/11/16 11:49:09;;;;;;;;;19.25;19.00;;;;;;;;5070743;28;49846;-66
2021/11/16 11:51:34;;;;;;;;;27.25;23.50;;;;;;;;5069658;28;64426;-66
2021/11/16 11:54:00;;;;;;;;;24.00;20.50;;;;;;;;5070575;28;54606;-66
2021/11/16 11:56:25;;;;;;;;;28.00;22.25;;;;;;;;5069939;28;57330;-67
2021/11/16 11:58:50;;;;;;;;;27.25;21.00;;;;;;;;5069940;28;60056;-66
2021/11/16 12:01:16;;;;;;;;;25.75;22.00;;;;;;;;5052004;28;49802;-66
2021/11/16 12:03:43;;;;;;;;;17.75;15.50;;;;;;;;5070548;28;49679;-66
2021/11/16 12:06:08;;;;;;;;;15.50;13.50;;;;;;;;5070641;28;49949;-66
2021/11/16 12:08:33;;;;;;;;;21.50;18.75;;;;;;;;5070517;28;49689;-66
2021/11/16 12:10:58;;;;;;;;;19.25;18.25;;;;;;;;5069997;28;50590;-66
2021/11/16 12:13:24;;;;;;;;;19.25;18.50;;;;;;;;5070436;28;49925;-66
2021/11/16 12:15:50;;;;;;;;;16.50;16.50;;;;;;;;5070382;28;49631;-66
2021/11/16 12:18:16;;;;;;;;;21.00;18.25;;;;;;;;5052206;28;49641;-66
2021/11/16 12:20:42;;;;;;;;;23.75;18.25;;;;;;;;5070067;28;49896;-66
2021/11/16 12:23:10;;;;;;;;;17.50;14.75;;;;;;;;5070061;28;49768;-66
2021/11/16 12:25:36;;;;;;;;;15.50;13.00;;;;;;;;5070388;28;50001;-66
2021/11/16 12:28:19;;;;;;;;;22.00;20.50;;;;;;;;5070233;28;49686;-66
2021/11/16 12:30:47;;;;;;;;;21.75;17.25;;;;;;;;5070181;28;50682;-66
2021/11/16 12:33:12;;;;;;;;;23.50;20.50;;;;;;;;5070031;28;49628;-66
2021/11/16 12:35:44;;;;;;;;;24.50;23.25;;;;;;;;5051718;28;50322;-66
2021/11/16 12:38:14;;;;;;;;;21.00;19.75;;;;;;;;5052008;28;49479;-68
2021/11/16 12:40:41;;;;;;;;;19.50;14.00;;;;;;;;5072541;27;55466;-67
2021/11/16 12:43:06;;;;;;;;;27.75;24.25;;;;;;;;5073383;28;50024;-67
2021/11/16 12:45:48;;;;;;;;;23.25;21.25;;;;;;;;5073514;28;49859;-67
2021/11/16 12:48:13;;;;;;;;;20.50;19.25;;;;;;;;5073439;28;49801;-66
2021/11/16 12:50:40;;;;;;;;;18.00;18.00;;;;;;;;5073112;28;50214;-67
2021/11/16 12:53:05;;;;;;;;;23.00;21.00;;;;;;;;5054760;28;49929;-66
2021/11/16 12:55:32;;;;;;;;;23.25;21.50;;;;;;;;5073275;28;49772;-66
2021/11/16 12:57:59;;;;;;;;;22.75;21.75;;;;;;;;5073347;28;49632;-66
2021/11/16 13:00:30;;;;;;;;;22.00;18.25;;;;;;;;5072990;27;49876;-66
2021/11/16 13:02:56;;;;;;;;;28.75;24.75;;;;;;;;5073204;28;49827;-67
2021/11/16 13:05:28;;;;;;;;;26.50;23.50;;;;;;;;5072540;27;58960;-66
2021/11/16 13:07:54;;;;;;;;;21.75;17.75;;;;;;;;5073096;27;49835;-66
2021/11/16 13:10:26;;;;;;;;;26.25;24.00;;;;;;;;5072731;28;51307;-66
2021/11/16 13:12:52;;;;;;;;;20.00;18.00;;;;;;;;5054671;28;49780;-66
2021/11/16 13:15:21;;;;;;;;;22.00;19.00;;;;;;;;5073393;28;49836;-66
2021/11/16 13:18:04;;;;;;;;;23.00;19.25;;;;;;;;5073087;28;49961;-66
2021/11/16 13:20:31;;;;;;;;;16.75;14.50;;;;;;;;5072702;28;50684;-67
2021/11/16 13:23:01;;;;;;;;;18.25;17.25;;;;;;;;5072661;28;49704;-66
2021/11/16 13:25:36;;;;;;;;;19.50;17.75;;;;;;;;5072532;28;49641;-66
2021/11/16 13:28:02;;;;;;;;;25.00;18.50;;;;;;;;5072721;27;49550;-67
2021/11/16 13:30:27;;;;;;;;;22.00;18.75;;;;;;;;5054327;28;50353;-66
2021/11/16 13:32:52;;;;;;;;;23.50;18.25;;;;;;;;5072006;28;63404;-66
2021/11/16 13:35:17;;;;;;;;;30.00;23.50;;;;;;;;5072661;28;49869;-66
2021/11/16 13:37:49;;;;;;;;;19.75;19.25;;;;;;;;5054136;28;50013;-66
2021/11/16 13:40:16;;;;;;;;;18.50;18.00;;;;;;;;5054070;28;50356;-68
2021/11/16 13:42:42;;;;;;;;;21.00;19.50;;;;;;;;5072380;27;49580;-67
2021/11/16 13:45:07;;;;;;;;;25.50;22.25;;;;;;;;5072378;28;49616;-66
2021/11/16 13:47:34;;;;;;;;;24.75;23.75;;;;;;;;5072568;27;49712;-67
2021/11/16 13:50:06;;;;;;;;;20.25;18.25;;;;;;;;5071870;28;50474;-66
2021/11/16 13:52:41;;;;;;;;;29.25;25.25;;;;;;;;5053949;28;49618;-67
2021/11/16 13:55:07;;;;;;;;;20.25;19.50;;;;;;;;5072267;28;49902;-67
2021/11/16 13:57:34;;;;;;;;;21.75;21.25;;;;;;;;5072461;28;49800;-66
2021/11/16 13:59:59;;;;;;;;;21.50;17.75;;;;;;;;5071850;28;50482;-66
2021/11/16 14:02:25;;;;;;;;;20.75;20.75;;;;;;;;5072190;27;49758;-66
2021/11/16 14:05:00;;;;;;;;;25.25;19.75;;;;;;;;5072063;27;49765;-67
2021/11/16 14:07:25;;;;;;;;;24.50;23.25;;;;;;;;5071957;28;49862;-66
2021/11/16 14:10:04;;;;;;;;;23.00;22.50;;;;;;;;5071779;27;50696;-66
2021/11/16 14:12:29;;;;;;;;;19.25;15.25;;;;;;;;5072094;28;49721;-66
2021/11/16 14:14:58;;;;;;;;;24.25;20.50;;;;;;;;5071537;27;55215;-66
2021/11/16 14:17:23;;;;;;;;;24.00;19.75;;;;;;;;5054049;28;50007;-66
2021/11/16 14:19:49;;;;;;;;;23.00;20.25;;;;;;;;5071820;28;50372;-67
2021/11/16 14:22:28;;;;;;;;;20.75;20.25;;;;;;;;5053501;28;49685;-67
2021/11/16 14:24:53;;;;;;;;;21.50;19.50;;;;;;;;5071642;28;49702;-66
2021/11/16 14:27:19;;;;;;;;;18.25;17.00;;;;;;;;5071954;28;49964;-67
2021/11/16 14:29:45;;;;;;;;;24.50;24.00;;;;;;;;5071495;28;49680;-67
2021/11/16 14:32:17;;;;;;;;;24.25;23.00;;;;;;;;5071929;28;49775;-67
2021/11/16 14:34:43;;;;;;;;;28.25;23.25;;;;;;;;5071623;28;49754;-66